Temp: 10.1°C   Baro: 1018.9mb
  Wind: 0.0mph   Dir: SSW (213°)
  Rain: 0.0mm (0.0mm/hr)
  Solar: 0W/m2  Hum: 90%
 
Bath Spa Weather Station Historical Data
Daily Summary for September 29, 2020 Units:  Both    English   Metric
Daily Weekly Monthly Yearly Custom
  High: Low: Average:
Temperature: 65.8 °F /  18.8 °C 49.8 °F /  9.9 °C 57.3 °F /  14.1 °C
Dew Point: 58.8 °F /  14.9 °C 46.9 °F /  8.3 °C 52.8 °F /  11.6 °C
Humidity: 95% 55.2% 83%
Wind Speed: 7.3mph /  11.7km/h - 1.7mph /  2.7km/h
Wind Gust: 13mph /  20.9km/h - -
Wind- - WNW
Pressure: 30.03 in /  1016.8 hPa 29.94 in /  1013.8 hPa -
Precipitation: 0.02 in /  0.51 mm    
Historical Graphs
 
 
Tabular Data for September 29, 2020
Time Temperature Dew Point Pressure Wind Wind Speed Wind Gust Humidity Rainfall Rate (Hourly) solar
00:04 59.4 °F /  15.2 °C 58.5 °F /  14.7 °C 29.94in /  1013.8hPa WSW 0.8mph /  1.3km/h 3mph /  4.8km/h 94% 0.01in /  0.25mm 0 W/m2
00:09 59.4 °F /  15.2 °C 58.6 °F /  14.8 °C 29.94in /  1013.8hPa WSW 2mph /  3.2km/h 4mph /  6.4km/h 94.4% 0.01in /  0.25mm 0 W/m2
00:14 59.4 °F /  15.2 °C 58.7 °F /  14.8 °C 29.94in /  1013.8hPa WSW 2.4mph /  3.9km/h 6mph /  9.7km/h 94.8% 0.01in /  0.25mm 0 W/m2
00:19 59.4 °F /  15.2 °C 58.8 °F /  14.9 °C 29.94in /  1013.8hPa West 2.1mph /  3.4km/h 6mph /  9.7km/h 95% 0.01in /  0.25mm 0 W/m2
00:24 59.4 °F /  15.2 °C 58.8 °F /  14.9 °C 29.94in /  1013.8hPa West 2.5mph /  4km/h 5mph /  8km/h 95% 0.01in /  0.25mm 0 W/m2
00:29 59.4 °F /  15.2 °C 58.8 °F /  14.9 °C 29.94in /  1013.8hPa West 2.6mph /  4.2km/h 4mph /  6.4km/h 95% 0.01in /  0.25mm 0 W/m2
00:34 59.4 °F /  15.2 °C 58.8 °F /  14.9 °C 29.94in /  1013.8hPa West 2.7mph /  4.3km/h 6mph /  9.7km/h 95% 0.01in /  0.25mm 0 W/m2
00:39 59.4 °F /  15.2 °C 58.8 °F /  14.9 °C 29.94in /  1013.8hPa WNW 2.1mph /  3.4km/h 4mph /  6.4km/h 95% 0.01in /  0.25mm 0 W/m2
00:44 59.4 °F /  15.2 °C 58.8 °F /  14.9 °C 29.94in /  1013.8hPa WNW 2.5mph /  4km/h 5mph /  8km/h 95% 0.01in /  0.25mm 0 W/m2
00:49 59.2 °F /  15.1 °C 58.6 °F /  14.8 °C 29.94in /  1013.8hPa WNW 3.9mph /  6.3km/h 9mph /  14.5km/h 95% 0.02in /  0.51mm 0 W/m2
00:54 58.9 °F /  14.9 °C 58.4 °F /  14.7 °C 29.94in /  1013.8hPa NW 3.4mph /  5.5km/h 8mph /  12.9km/h 95% 0.02in /  0.51mm 0 W/m2
00:59 58.6 °F /  14.8 °C 58.1 °F /  14.5 °C 29.94in /  1013.8hPa WNW 0.8mph /  1.3km/h 5mph /  8km/h 95% 0.02in /  0.51mm 0 W/m2
01:04 58.6 °F /  14.8 °C 58.1 °F /  14.5 °C 29.94in /  1013.8hPa NW 2.6mph /  4.2km/h 7mph /  11.3km/h 95% 0.02in /  0.51mm 0 W/m2
01:09 58.6 °F /  14.8 °C 58 °F /  14.4 °C 29.94in /  1013.8hPa WNW 1.7mph /  2.7km/h 6mph /  9.7km/h 95% 0.02in /  0.51mm 0 W/m2
01:14 58.5 °F /  14.7 °C 57.9 °F /  14.4 °C 29.94in /  1013.8hPa NW 2.5mph /  4km/h 7mph /  11.3km/h 95% 0.02in /  0.51mm 0 W/m2
01:19 58.1 °F /  14.5 °C 57.6 °F /  14.2 °C 29.94in /  1013.8hPa NW 4.5mph /  7.2km/h 11mph /  17.7km/h 95% 0.02in /  0.51mm 0 W/m2
01:24 57.8 °F /  14.3 °C 57.3 °F /  14.1 °C 29.94in /  1013.8hPa NW 3.7mph /  6km/h 7mph /  11.3km/h 95% 0.02in /  0.51mm 0 W/m2
01:29 57.7 °F /  14.3 °C 57.2 °F /  14 °C 29.94in /  1013.8hPa NW 3mph /  4.8km/h 9mph /  14.5km/h 95% 0.02in /  0.51mm 0 W/m2
01:34 57.7 °F /  14.3 °C 57.1 °F /  13.9 °C 29.95in /  1014.1hPa NW 3.8mph /  6.1km/h 9mph /  14.5km/h 95% 0.02in /  0.51mm 0 W/m2
01:39 57.6 °F /  14.2 °C 57 °F /  13.9 °C 29.95in /  1014.1hPa NW 2.3mph /  3.7km/h 6mph /  9.7km/h 95% 0.01in /  0.25mm 0 W/m2
01:44 57.6 °F /  14.2 °C 57 °F /  13.9 °C 29.95in /  1014.1hPa NNW 1.2mph /  1.9km/h 6mph /  9.7km/h 95% 0.01in /  0.25mm 0 W/m2
01:49 57.6 °F /  14.2 °C 57 °F /  13.9 °C 29.95in /  1014.1hPa NW 1.7mph /  2.7km/h 6mph /  9.7km/h 95% 0.00in /  0mm 0 W/m2
01:54 57.4 °F /  14.1 °C 56.8 °F /  13.8 °C 29.95in /  1014.1hPa NNW 2.8mph /  4.5km/h 6mph /  9.7km/h 95% 0.00in /  0mm 0 W/m2
01:59 57.3 °F /  14.1 °C 56.7 °F /  13.7 °C 29.95in /  1014.1hPa WNW 1.9mph /  3.1km/h 6mph /  9.7km/h 95% 0.01in /  0.25mm 0 W/m2
02:04 57.1 °F /  13.9 °C 56.6 °F /  13.7 °C 29.95in /  1014.1hPa NW 2mph /  3.2km/h 5mph /  8km/h 95% 0.01in /  0.25mm 0 W/m2
02:09 56.9 °F /  13.8 °C 56.4 °F /  13.6 °C 29.96in /  1014.4hPa NNW 4.1mph /  6.6km/h 9mph /  14.5km/h 95% 0.01in /  0.25mm 0 W/m2
02:14 56.8 °F /  13.8 °C 56.3 °F /  13.5 °C 29.96in /  1014.4hPa NNW 3.9mph /  6.3km/h 9mph /  14.5km/h 95% 0.01in /  0.25mm 0 W/m2
02:19 56.8 °F /  13.8 °C 56.3 °F /  13.5 °C 29.96in /  1014.4hPa Calm   3mph /  4.8km/h 95% 0.01in /  0.25mm 0 W/m2
02:24 56.8 °F /  13.8 °C 56.3 °F /  13.5 °C 29.96in /  1014.4hPa North 1mph /  1.6km/h 5mph /  8km/h 95% 0.01in /  0.25mm 0 W/m2
02:29 56.8 °F /  13.8 °C 56.2 °F /  13.4 °C 29.96in /  1014.4hPa Calm   3mph /  4.8km/h 95% 0.01in /  0.25mm 0 W/m2
02:34 56.7 °F /  13.7 °C 56.1 °F /  13.4 °C 29.96in /  1014.4hPa NW 1.3mph /  2.1km/h 5mph /  8km/h 95% 0.01in /  0.25mm 0 W/m2
02:39 56.5 °F /  13.6 °C 55.9 °F /  13.3 °C 29.96in /  1014.4hPa NW 2.2mph /  3.5km/h 5mph /  8km/h 95% 0.01in /  0.25mm 0 W/m2
02:44 56.5 °F /  13.6 °C 55.9 °F /  13.3 °C 29.96in /  1014.4hPa NW 1.7mph /  2.7km/h 5mph /  8km/h 95% 0.01in /  0.25mm 0 W/m2
02:49 56.5 °F /  13.6 °C 55.9 °F /  13.3 °C 29.96in /  1014.4hPa WNW 0.2mph /  0.3km/h 2mph /  3.2km/h 95% 0.01in /  0.25mm 0 W/m2
02:54 56.5 °F /  13.6 °C 55.9 °F /  13.3 °C 29.96in /  1014.4hPa WNW 0.2mph /  0.3km/h 2mph /  3.2km/h 95% 0.01in /  0.25mm 0 W/m2
02:59 56.5 °F /  13.6 °C 55.9 °F /  13.3 °C 29.96in /  1014.4hPa WNW 0.2mph /  0.3km/h 1mph /  1.6km/h 95% 0.01in /  0.25mm 0 W/m2
03:04 56.3 °F /  13.5 °C 55.8 °F /  13.2 °C 29.96in /  1014.4hPa WNW 0.2mph /  0.3km/h 2mph /  3.2km/h 95% 0.00in /  0mm 0 W/m2
03:09 56.1 °F /  13.4 °C 55.6 °F /  13.1 °C 29.96in /  1014.4hPa WNW 0.2mph /  0.3km/h 2mph /  3.2km/h 95% 0.00in /  0mm 0 W/m2
03:14 56.2 °F /  13.4 °C 55.7 °F /  13.2 °C 29.96in /  1014.4hPa WNW 0.8mph /  1.3km/h 2mph /  3.2km/h 95% 0.00in /  0mm 0 W/m2
03:19 56.3 °F /  13.5 °C 55.7 °F /  13.2 °C 29.96in /  1014.4hPa WNW 0.6mph /  1km/h 2mph /  3.2km/h 94.8% 0.00in /  0mm 0 W/m2
03:24 56.1 °F /  13.4 °C 55.6 °F /  13.1 °C 29.96in /  1014.4hPa WNW 0.5mph /  0.8km/h 3mph /  4.8km/h 94.8% 0.00in /  0mm 0 W/m2
03:29 56.1 °F /  13.4 °C 55.4 °F /  13 °C 29.96in /  1014.4hPa WNW 1mph /  1.6km/h 4mph /  6.4km/h 94.6% 0.00in /  0mm 0 W/m2
03:34 56.1 °F /  13.4 °C 55.4 °F /  13 °C 29.96in /  1014.4hPa WNW 1.2mph /  1.9km/h 4mph /  6.4km/h 94.6% 0.00in /  0mm 0 W/m2
03:39 56.1 °F /  13.4 °C 55.2 °F /  12.9 °C 29.96in /  1014.4hPa West 2.7mph /  4.3km/h 5mph /  8km/h 94% 0.00in /  0mm 0 W/m2
03:44 55.9 °F /  13.3 °C 55.3 °F /  12.9 °C 29.96in /  1014.4hPa West 2.6mph /  4.2km/h 4mph /  6.4km/h 94.4% 0.00in /  0mm 0 W/m2
03:49 55.9 °F /  13.3 °C 55.2 °F /  12.9 °C 29.96in /  1014.4hPa West 0.8mph /  1.3km/h 4mph /  6.4km/h 94.2% 0.00in /  0mm 0 W/m2
03:54 55.9 °F /  13.3 °C 55.3 °F /  12.9 °C 29.96in /  1014.4hPa West 1.6mph /  2.6km/h 3mph /  4.8km/h 94.6% 0.00in /  0mm 0 W/m2
03:59 55.9 °F /  13.3 °C 55.4 °F /  13 °C 29.96in /  1014.4hPa West 1.8mph /  2.9km/h 4mph /  6.4km/h 95% 0.00in /  0mm 0 W/m2
04:04 55.9 °F /  13.3 °C 55.4 °F /  13 °C 29.96in /  1014.4hPa West 0.9mph /  1.4km/h 4mph /  6.4km/h 95% 0.00in /  0mm 0 W/m2
04:09 55.9 °F /  13.3 °C 55.3 °F /  12.9 °C 29.96in /  1014.4hPa West 2mph /  3.2km/h 4mph /  6.4km/h 95% 0.00in /  0mm 0 W/m2
04:14 55.8 °F /  13.2 °C 55.2 °F /  12.9 °C 29.96in /  1014.4hPa West 1.3mph /  2.1km/h 4mph /  6.4km/h 95% 0.00in /  0mm 0 W/m2
04:19 55.8 °F /  13.2 °C 55.2 °F /  12.9 °C 29.96in /  1014.4hPa West 0.8mph /  1.3km/h 3mph /  4.8km/h 94.8% 0.00in /  0mm 0 W/m2
04:24 55.8 °F /  13.2 °C 55.2 °F /  12.9 °C 29.96in /  1014.4hPa Calm   2mph /  3.2km/h 95% 0.00in /  0mm 0 W/m2
04:29 55.8 °F /  13.2 °C 55.2 °F /  12.9 °C 29.96in /  1014.4hPa West 1.2mph /  1.9km/h 3mph /  4.8km/h 95% 0.00in /  0mm 0 W/m2
04:34 55.8 °F /  13.2 °C 55.2 °F /  12.9 °C 29.96in /  1014.4hPa West 1.3mph /  2.1km/h 3mph /  4.8km/h 95% 0.00in /  0mm 0 W/m2
04:39 55.8 °F /  13.2 °C 55.2 °F /  12.9 °C 29.96in /  1014.4hPa West 0.4mph /  0.6km/h 3mph /  4.8km/h 95% 0.00in /  0mm 0 W/m2
04:44 55.8 °F /  13.2 °C 55.2 °F /  12.9 °C 29.97in /  1014.8hPa West 0.8mph /  1.3km/h 3mph /  4.8km/h 95% 0.00in /  0mm 0 W/m2
04:49 55.8 °F /  13.2 °C 55.2 °F /  12.9 °C 29.97in /  1014.8hPa West 0.4mph /  0.6km/h 3mph /  4.8km/h 95% 0.00in /  0mm 0 W/m2
04:54 55.7 °F /  13.2 °C 55.1 °F /  12.8 °C 29.97in /  1014.8hPa Calm   1mph /  1.6km/h 95% 0.00in /  0mm 0 W/m2
04:59 55.6 °F /  13.1 °C 55 °F /  12.8 °C 29.97in /  1014.8hPa Calm   2mph /  3.2km/h 95% 0.00in /  0mm 0 W/m2
05:04 55.6 °F /  13.1 °C 55 °F /  12.8 °C 29.97in /  1014.8hPa Calm     95% 0.00in /  0mm 0 W/m2
05:09 55.6 °F /  13.1 °C 55 °F /  12.8 °C 29.97in /  1014.8hPa Calm     94.5% 0.00in /  0mm 0 W/m2
05:14 55.6 °F /  13.1 °C 55 °F /  12.8 °C 29.97in /  1014.8hPa Calm     94.8% 0.00in /  0mm 0 W/m2
05:19 55.6 °F /  13.1 °C 55 °F /  12.8 °C 29.97in /  1014.8hPa West 0.2mph /  0.3km/h 2mph /  3.2km/h 94.6% 0.00in /  0mm 0 W/m2
05:24 55.6 °F /  13.1 °C 54.9 °F /  12.7 °C 29.97in /  1014.8hPa Calm   1mph /  1.6km/h 94% 0.00in /  0mm 0 W/m2
05:29 55.5 °F /  13.1 °C 54.9 °F /  12.7 °C 29.97in /  1014.8hPa Calm   1mph /  1.6km/h 94.4% 0.00in /  0mm 0 W/m2
05:34 55.4 °F /  13 °C 54.9 °F /  12.7 °C 29.97in /  1014.8hPa West 0.2mph /  0.3km/h 1mph /  1.6km/h 94.8% 0.00in /  0mm 0 W/m2
05:39 55.2 °F /  12.9 °C 54.7 °F /  12.6 °C 29.97in /  1014.8hPa Calm     94.8% 0.00in /  0mm 0 W/m2
05:44 55.3 °F /  12.9 °C 54.8 °F /  12.7 °C 29.97in /  1014.8hPa Calm   2mph /  3.2km/h 95% 0.00in /  0mm 0 W/m2
05:49 55.2 °F /  12.9 °C 54.7 °F /  12.6 °C 29.97in /  1014.8hPa Calm   1mph /  1.6km/h 95% 0.00in /  0mm 0 W/m2
05:54 55.2 °F /  12.9 °C 54.7 °F /  12.6 °C 29.97in /  1014.8hPa Calm   2mph /  3.2km/h 95% 0.00in /  0mm 0 W/m2
05:59 55.2 °F /  12.9 °C 54.7 °F /  12.6 °C 29.97in /  1014.8hPa West 0.2mph /  0.3km/h 2mph /  3.2km/h 95% 0.00in /  0mm 0 W/m2
06:04 55 °F /  12.8 °C 54.5 °F /  12.5 °C 29.98in /  1015.1hPa Calm     95% 0.00in /  0mm 0 W/m2
06:09 55 °F /  12.8 °C 54.5 °F /  12.5 °C 29.98in /  1015.1hPa Calm   1mph /  1.6km/h 95% 0.00in /  0mm 0 W/m2
06:14 54.9 °F /  12.7 °C 54.3 °F /  12.4 °C 29.98in /  1015.1hPa Calm   1mph /  1.6km/h 95% 0.00in /  0mm 0 W/m2
06:19 54.9 °F /  12.7 °C 54.3 °F /  12.4 °C 29.98in /  1015.1hPa Calm     95% 0.00in /  0mm 0 W/m2
06:24 54.9 °F /  12.7 °C 54.3 °F /  12.4 °C 29.98in /  1015.1hPa Calm   1mph /  1.6km/h 95% 0.00in /  0mm 0 W/m2
06:29 54.7 °F /  12.6 °C 54.1 °F /  12.3 °C 29.98in /  1015.1hPa West 0.4mph /  0.6km/h 2mph /  3.2km/h 95% 0.00in /  0mm 0 W/m2
06:34 54.7 °F /  12.6 °C 54.1 °F /  12.3 °C 29.98in /  1015.1hPa West 0.4mph /  0.6km/h 2mph /  3.2km/h 95% 0.00in /  0mm 0 W/m2
06:39 54.6 °F /  12.6 °C 54.1 °F /  12.3 °C 29.98in /  1015.1hPa Calm     95% 0.00in /  0mm 0 W/m2
06:44 54.5 °F /  12.5 °C 54 °F /  12.2 °C 29.98in /  1015.1hPa Calm     95% 0.00in /  0mm 0 W/m2
06:49 54.4 °F /  12.4 °C 53.9 °F /  12.2 °C 29.98in /  1015.1hPa Calm   1mph /  1.6km/h 95% 0.00in /  0mm 0 W/m2
06:54 54.3 °F /  12.4 °C 53.8 °F /  12.1 °C 29.98in /  1015.1hPa Calm     95% 0.00in /  0mm 0 W/m2
06:59 54.2 °F /  12.3 °C 53.7 °F /  12.1 °C 29.98in /  1015.1hPa Calm     95% 0.00in /  0mm 0 W/m2
07:04 54 °F /  12.2 °C 53.4 °F /  11.9 °C 29.99in /  1015.5hPa Calm     95% 0.00in /  0mm 0 W/m2
07:09 53.8 °F /  12.1 °C 53.2 °F /  11.8 °C 29.99in /  1015.5hPa Calm     95% 0.00in /  0mm 0 W/m2
07:14 53.7 °F /  12.1 °C 53.2 °F /  11.8 °C 29.99in /  1015.5hPa Calm     95% 0.00in /  0mm 7 W/m2
07:18 53.6 °F /  12 °C 53.1 °F /  11.7 °C 29.99in /  1015.5hPa Calm     95% 0.00in /  0mm 9 W/m2
07:24 53.5 °F /  11.9 °C 53 °F /  11.7 °C 29.99in /  1015.5hPa Calm     95% 0.00in /  0mm 12 W/m2
07:29 53.4 °F /  11.9 °C 52.9 °F /  11.6 °C 29.99in /  1015.5hPa Calm     95% 0.00in /  0mm 18 W/m2
07:34 53.4 °F /  11.9 °C 52.9 °F /  11.6 °C 29.99in /  1015.5hPa Calm     95% 0.00in /  0mm 23 W/m2
07:39 53.2 °F /  11.8 °C 52.7 °F /  11.5 °C 30.00in /  1015.8hPa Calm     95% 0.00in /  0mm 26 W/m2
07:44 53.2 °F /  11.8 °C 52.7 °F /  11.5 °C 30.00in /  1015.8hPa Calm     95% 0.00in /  0mm 32 W/m2
07:49 53.3 °F /  11.8 °C 52.8 °F /  11.6 °C 30.00in /  1015.8hPa Calm   1mph /  1.6km/h 95% 0.00in /  0mm 35 W/m2
07:54 53.4 °F /  11.9 °C 52.9 °F /  11.6 °C 30.00in /  1015.8hPa Calm     95% 0.00in /  0mm 37 W/m2
07:59 53.4 °F /  11.9 °C 52.9 °F /  11.6 °C 30.00in /  1015.8hPa Calm     95% 0.00in /  0mm 37 W/m2
08:04 53.4 °F /  11.9 °C 52.9 °F /  11.6 °C 30.00in /  1015.8hPa Calm     95% 0.00in /  0mm 40 W/m2
08:09 53.4 °F /  11.9 °C 52.9 °F /  11.6 °C 30.01in /  1016.1hPa Calm     95% 0.00in /  0mm 53 W/m2
08:14 53.4 °F /  11.9 °C 52.9 °F /  11.6 °C 30.01in /  1016.1hPa West 0.2mph /  0.3km/h 2mph /  3.2km/h 95% 0.00in /  0mm 47 W/m2
08:19 53.2 °F /  11.8 °C 52.7 °F /  11.5 °C 30.01in /  1016.1hPa Calm     95% 0.00in /  0mm 46 W/m2
08:24 53.2 °F /  11.8 °C 52.6 °F /  11.4 °C 30.01in /  1016.1hPa Calm     95% 0.00in /  0mm 40 W/m2
08:29 53.1 °F /  11.7 °C 52.5 °F /  11.4 °C 30.01in /  1016.1hPa West 0.6mph /  1km/h 2mph /  3.2km/h 95% 0.00in /  0mm 42 W/m2
08:34 53.1 °F /  11.7 °C 52.5 °F /  11.4 °C 30.01in /  1016.1hPa West 0.5mph /  0.8km/h 2mph /  3.2km/h 95% 0.00in /  0mm 49 W/m2
08:39 53.1 °F /  11.7 °C 52.5 °F /  11.4 °C 30.01in /  1016.1hPa West 0.2mph /  0.3km/h 1mph /  1.6km/h 95% 0.00in /  0mm 56 W/m2
08:44 53.1 °F /  11.7 °C 52.5 °F /  11.4 °C 30.01in /  1016.1hPa Calm   1mph /  1.6km/h 95% 0.00in /  0mm 67 W/m2
08:49 53.2 °F /  11.8 °C 52.6 °F /  11.4 °C 30.01in /  1016.1hPa Calm     95% 0.00in /  0mm 137 W/m2
08:54 53.3 °F /  11.8 °C 52.8 °F /  11.6 °C 30.01in /  1016.1hPa West 0.4mph /  0.6km/h 2mph /  3.2km/h 95% 0.00in /  0mm 174 W/m2
08:59 53.2 °F /  11.8 °C 52.7 °F /  11.5 °C 30.01in /  1016.1hPa WNW 1.6mph /  2.6km/h 6mph /  9.7km/h 95% 0.00in /  0mm 97 W/m2
09:04 53.3 °F /  11.8 °C 52.8 °F /  11.6 °C 30.01in /  1016.1hPa NW 1.8mph /  2.9km/h 6mph /  9.7km/h 95% 0.00in /  0mm 209 W/m2
09:09 53.7 °F /  12.1 °C 53.2 °F /  11.8 °C 30.01in /  1016.1hPa NW 2.8mph /  4.5km/h 6mph /  9.7km/h 95% 0.00in /  0mm 167 W/m2
09:14 53.9 °F /  12.2 °C 53.3 °F /  11.8 °C 30.02in /  1016.5hPa NW 2mph /  3.2km/h 5mph /  8km/h 95% 0.00in /  0mm 227 W/m2
09:19 54.1 °F /  12.3 °C 53.6 °F /  12 °C 30.02in /  1016.5hPa NNW 2.5mph /  4km/h 5mph /  8km/h 95% 0.00in /  0mm 250 W/m2
09:23 54.2 °F /  12.3 °C 53.5 °F /  11.9 °C 30.02in /  1016.5hPa NW 0.7mph /  1.1km/h 7mph /  11.3km/h 94% 0.00in /  0mm 260 W/m2
09:29 54.3 °F /  12.4 °C 53.6 °F /  12 °C 30.02in /  1016.5hPa NW 2.4mph /  3.9km/h 7mph /  11.3km/h 94% 0.00in /  0mm 214 W/m2
09:34 54.3 °F /  12.4 °C 53.3 °F /  11.8 °C 30.02in /  1016.5hPa NW 3.1mph /  5km/h 6mph /  9.7km/h 93.2% 0.00in /  0mm 104 W/m2
09:39 54.6 °F /  12.6 °C 53.4 °F /  11.9 °C 30.02in /  1016.5hPa NNW 1.4mph /  2.3km/h 5mph /  8km/h 92.6% 0.00in /  0mm 287 W/m2
09:44 55.2 °F /  12.9 °C 53.8 °F /  12.1 °C 30.02in /  1016.5hPa NNW 3.4mph /  5.5km/h 6mph /  9.7km/h 91.6% 0.00in /  0mm 294 W/m2
09:49 55.2 °F /  12.9 °C 53.4 °F /  11.9 °C 30.02in /  1016.5hPa NNW 2.8mph /  4.5km/h 7mph /  11.3km/h 90.4% 0.00in /  0mm 306 W/m2
09:54 55.7 °F /  13.2 °C 53.4 °F /  11.9 °C 30.02in /  1016.5hPa NW 2.1mph /  3.4km/h 5mph /  8km/h 89% 0.00in /  0mm 323 W/m2
09:59 55.9 °F /  13.3 °C 53.2 °F /  11.8 °C 30.02in /  1016.5hPa NNW 1.7mph /  2.7km/h 5mph /  8km/h 88% 0.00in /  0mm 336 W/m2
10:04 56.2 °F /  13.4 °C 53.3 °F /  11.8 °C 30.02in /  1016.5hPa NNW 1.9mph /  3.1km/h 6mph /  9.7km/h 87% 0.00in /  0mm 353 W/m2
10:09 56.3 °F /  13.5 °C 53.2 °F /  11.8 °C 30.02in /  1016.5hPa NW 3.8mph /  6.1km/h 7mph /  11.3km/h 86.4% 0.00in /  0mm 371 W/m2
10:14 56.5 °F /  13.6 °C 53.2 °F /  11.8 °C 30.02in /  1016.5hPa NW 2.1mph /  3.4km/h 6mph /  9.7km/h 86% 0.00in /  0mm 378 W/m2
10:19 56.6 °F /  13.7 °C 53.2 °F /  11.8 °C 30.02in /  1016.5hPa NNW 1.8mph /  2.9km/h 6mph /  9.7km/h 85.6% 0.00in /  0mm 350 W/m2
10:24 56.7 °F /  13.7 °C 53.2 °F /  11.8 °C 30.02in /  1016.5hPa NW 2.8mph /  4.5km/h 5mph /  8km/h 85.4% 0.00in /  0mm 253 W/m2
10:29 56.3 °F /  13.5 °C 52.8 °F /  11.6 °C 30.02in /  1016.5hPa NW 3.1mph /  5km/h 6mph /  9.7km/h 85.4% 0.00in /  0mm 144 W/m2
10:34 56 °F /  13.3 °C 52.5 °F /  11.4 °C 30.03in /  1016.8hPa NW 4.4mph /  7.1km/h 7mph /  11.3km/h 85.4% 0.00in /  0mm 355 W/m2
10:39 56.1 °F /  13.4 °C 52.8 °F /  11.6 °C 30.03in /  1016.8hPa NW 3.2mph /  5.1km/h 7mph /  11.3km/h 85.8% 0.00in /  0mm 457 W/m2
10:44 56.8 °F /  13.8 °C 53.3 °F /  11.8 °C 30.03in /  1016.8hPa NNW 3.5mph /  5.6km/h 6mph /  9.7km/h 85.3% 0.00in /  0mm 454 W/m2
10:49 57.3 °F /  14.1 °C 53.4 °F /  11.9 °C 30.03in /  1016.8hPa North 1.7mph /  2.7km/h 6mph /  9.7km/h 84.2% 0.00in /  0mm 476 W/m2
10:54 57.6 °F /  14.2 °C 53.2 °F /  11.8 °C 30.03in /  1016.8hPa North 3mph /  4.8km/h 7mph /  11.3km/h 83% 0.00in /  0mm 522 W/m2
10:59 57.9 °F /  14.4 °C 53.6 °F /  12 °C 30.02in /  1016.5hPa NW 1mph /  1.6km/h 6mph /  9.7km/h 83% 0.00in /  0mm 524 W/m2
11:04 58.7 °F /  14.8 °C 54 °F /  12.2 °C 30.02in /  1016.5hPa NW 2mph /  3.2km/h 5mph /  8km/h 82% 0.00in /  0mm 564 W/m2
11:09 58.6 °F /  14.8 °C 53.9 °F /  12.2 °C 30.02in /  1016.5hPa NNW 2.4mph /  3.9km/h 5mph /  8km/h 82% 0.00in /  0mm 520 W/m2
11:14 58.1 °F /  14.5 °C 53.3 °F /  11.8 °C 30.02in /  1016.5hPa WNW 1.2mph /  1.9km/h 5mph /  8km/h 81.4% 0.00in /  0mm 496 W/m2
11:19 58.5 °F /  14.7 °C 53.8 °F /  12.1 °C 30.02in /  1016.5hPa WNW 1.8mph /  2.9km/h 4mph /  6.4km/h 81.4% 0.00in /  0mm 503 W/m2
11:24 59.3 °F /  15.2 °C 54.3 °F /  12.4 °C 30.02in /  1016.5hPa West 2.1mph /  3.4km/h 5mph /  8km/h 81% 0.00in /  0mm 506 W/m2
11:29 59.7 °F /  15.4 °C 54.4 °F /  12.4 °C 30.02in /  1016.5hPa West 1.7mph /  2.7km/h 4mph /  6.4km/h 79.8% 0.00in /  0mm 517 W/m2
11:34 59.7 °F /  15.4 °C 53.8 °F /  12.1 °C 30.02in /  1016.5hPa WNW 1.2mph /  1.9km/h 5mph /  8km/h 78% 0.00in /  0mm 527 W/m2
11:39 59.7 °F /  15.4 °C 53.9 °F /  12.2 °C 30.02in /  1016.5hPa NW 0.8mph /  1.3km/h 5mph /  8km/h 78.6% 0.00in /  0mm 520 W/m2
11:44 60.7 °F /  15.9 °C 54.5 °F /  12.5 °C 30.02in /  1016.5hPa NW 0.6mph /  1km/h 3mph /  4.8km/h 77.2% 0.00in /  0mm 526 W/m2
11:49 60.8 °F /  16 °C 54.5 °F /  12.5 °C 30.02in /  1016.5hPa WNW 2.2mph /  3.5km/h 6mph /  9.7km/h 76.8% 0.00in /  0mm 533 W/m2
11:54 60.8 °F /  16 °C 54.6 °F /  12.6 °C 30.02in /  1016.5hPa West 3.2mph /  5.1km/h 5mph /  8km/h 77% 0.00in /  0mm 536 W/m2
11:59 61 °F /  16.1 °C 54.3 °F /  12.4 °C 30.02in /  1016.5hPa West 2mph /  3.2km/h 5mph /  8km/h 76% 0.00in /  0mm 543 W/m2
12:04 61.3 °F /  16.3 °C 54.3 °F /  12.4 °C 30.02in /  1016.5hPa WSW 2.9mph /  4.7km/h 5mph /  8km/h 75.6% 0.00in /  0mm 538 W/m2
12:09 61.3 °F /  16.3 °C 54.2 °F /  12.3 °C 30.02in /  1016.5hPa West 4mph /  6.4km/h 6mph /  9.7km/h 75.2% 0.00in /  0mm 545 W/m2
12:14 60.8 °F /  16 °C 53.9 °F /  12.2 °C 30.02in /  1016.5hPa West 2.1mph /  3.4km/h 6mph /  9.7km/h 75.4% 0.00in /  0mm 550 W/m2
12:19 61.3 °F /  16.3 °C 54.1 °F /  12.3 °C 30.02in /  1016.5hPa WNW 3.6mph /  5.8km/h 7mph /  11.3km/h 75.2% 0.00in /  0mm 573 W/m2
12:24 61 °F /  16.1 °C 54 °F /  12.2 °C 30.02in /  1016.5hPa West 4.9mph /  7.9km/h 8mph /  12.9km/h 75.4% 0.00in /  0mm 573 W/m2
12:29 61.3 °F /  16.3 °C 53.9 °F /  12.2 °C 30.02in /  1016.5hPa West 4.2mph /  6.8km/h 7mph /  11.3km/h 74.4% 0.00in /  0mm 564 W/m2
12:34 61.2 °F /  16.2 °C 53.4 °F /  11.9 °C 30.02in /  1016.5hPa WNW 3.2mph /  5.1km/h 7mph /  11.3km/h 73.4% 0.00in /  0mm 561 W/m2
12:39 61.7 °F /  16.5 °C 53.6 °F /  12 °C 30.02in /  1016.5hPa West 2.4mph /  3.9km/h 7mph /  11.3km/h 72.6% 0.00in /  0mm 570 W/m2
12:44 61.7 °F /  16.5 °C 53.2 °F /  11.8 °C 30.02in /  1016.5hPa NW 4.1mph /  6.6km/h 9mph /  14.5km/h 71.6% 0.00in /  0mm 584 W/m2
12:49 62.1 °F /  16.7 °C 53.2 °F /  11.8 °C 30.02in /  1016.5hPa WNW 2.8mph /  4.5km/h 6mph /  9.7km/h 70.4% 0.00in /  0mm 585 W/m2
12:54 63 °F /  17.2 °C 53.3 °F /  11.8 °C 30.02in /  1016.5hPa West 2.8mph /  4.5km/h 7mph /  11.3km/h 68.4% 0.00in /  0mm 649 W/m2
12:58 62.6 °F /  17 °C 52.4 °F /  11.3 °C 30.02in /  1016.5hPa NW 4.2mph /  6.8km/h 6mph /  9.7km/h 67.3% 0.00in /  0mm 712 W/m2
13:04 62.5 °F /  16.9 °C 52.6 °F /  11.4 °C 30.01in /  1016.1hPa NW 1mph /  1.6km/h 7mph /  11.3km/h 67.8% 0.00in /  0mm 747 W/m2
13:09 64 °F /  17.8 °C 53.1 °F /  11.7 °C 30.01in /  1016.1hPa WNW 2.5mph /  4km/h 6mph /  9.7km/h 65.8% 0.00in /  0mm 330 W/m2
13:14 63.7 °F /  17.6 °C 54.1 °F /  12.3 °C 30.01in /  1016.1hPa WNW 3.3mph /  5.3km/h 6mph /  9.7km/h 68.8% 0.00in /  0mm 408 W/m2
13:19 62.9 °F /  17.2 °C 53.4 °F /  11.9 °C 30.01in /  1016.1hPa NNW 4.7mph /  7.6km/h 7mph /  11.3km/h 68.8% 0.00in /  0mm 323 W/m2
13:24 61.9 °F /  16.6 °C 52.8 °F /  11.6 °C 30.01in /  1016.1hPa NNW 3.3mph /  5.3km/h 8mph /  12.9km/h 69.6% 0.00in /  0mm 207 W/m2
13:29 61.3 °F /  16.3 °C 52.5 °F /  11.4 °C 30.01in /  1016.1hPa North 3.9mph /  6.3km/h 9mph /  14.5km/h 70.6% 0.00in /  0mm 262 W/m2
13:34 61.4 °F /  16.3 °C 52.8 °F /  11.6 °C 30.01in /  1016.1hPa NW 1.6mph /  2.6km/h 5mph /  8km/h 71% 0.00in /  0mm 160 W/m2
13:39 61.4 °F /  16.3 °C 52.9 °F /  11.6 °C 30.01in /  1016.1hPa WNW 1.7mph /  2.7km/h 5mph /  8km/h 71.4% 0.00in /  0mm 114 W/m2
13:44 61.6 °F /  16.4 °C 53.3 °F /  11.8 °C 30.01in /  1016.1hPa West 1mph /  1.6km/h 3mph /  4.8km/h 72% 0.00in /  0mm 262 W/m2
13:49 62 °F /  16.7 °C 53.6 °F /  12 °C 30.01in /  1016.1hPa West 0.8mph /  1.3km/h 2mph /  3.2km/h 71.6% 0.00in /  0mm 262 W/m2
13:54 62.6 °F /  17 °C 53.6 °F /  12 °C 30.00in /  1015.8hPa SSW 2mph /  3.2km/h 4mph /  6.4km/h 70.2% 0.00in /  0mm 622 W/m2
13:59 63 °F /  17.2 °C 53.6 °F /  12 °C 30.00in /  1015.8hPa SSW 1.3mph /  2.1km/h 4mph /  6.4km/h 69.2% 0.00in /  0mm 496 W/m2
14:04 63.5 °F /  17.5 °C 53.5 °F /  11.9 °C 30.00in /  1015.8hPa SSW 0.8mph /  1.3km/h 3mph /  4.8km/h 67.6% 0.00in /  0mm 587 W/m2
14:09 65.8 °F /  18.8 °C 55.1 °F /  12.8 °C 30.00in /  1015.8hPa SSW 2.1mph /  3.4km/h 6mph /  9.7km/h 66.4% 0.00in /  0mm 605 W/m2
14:14 64.9 °F /  18.3 °C 53.7 °F /  12.1 °C 30.00in /  1015.8hPa SW 1.6mph /  2.6km/h 6mph /  9.7km/h 65.2% 0.00in /  0mm 615 W/m2
14:19 65.1 °F /  18.4 °C 53.9 °F /  12.2 °C 30.00in /  1015.8hPa West 2.5mph /  4km/h 6mph /  9.7km/h 64.8% 0.00in /  0mm 621 W/m2
14:24 64.9 °F /  18.3 °C 53 °F /  11.7 °C 29.99in /  1015.5hPa West 2.6mph /  4.2km/h 6mph /  9.7km/h 63.4% 0.00in /  0mm 642 W/m2
14:29 64.7 °F /  18.2 °C 52.7 °F /  11.5 °C 29.99in /  1015.5hPa West 4.2mph /  6.8km/h 7mph /  11.3km/h 63% 0.00in /  0mm 666 W/m2
14:34 65.5 °F /  18.6 °C 52.4 °F /  11.3 °C 29.99in /  1015.5hPa SW 4.1mph /  6.6km/h 8mph /  12.9km/h 60.8% 0.00in /  0mm 311 W/m2
14:44 64.4 °F /  18 °C 51.1 °F /  10.6 °C 29.99in /  1015.5hPa WSW 5.5mph /  8.9km/h 9mph /  14.5km/h 60% 0.00in /  0mm 684 W/m2
14:49 63.9 °F /  17.7 °C 51.5 °F /  10.8 °C 29.99in /  1015.5hPa WSW 4.4mph /  7.1km/h 9mph /  14.5km/h 62.2% 0.00in /  0mm 684 W/m2
14:54 63.9 °F /  17.7 °C 52.5 °F /  11.4 °C 29.99in /  1015.5hPa West 3.8mph /  6.1km/h 8mph /  12.9km/h 64.4% 0.00in /  0mm 577 W/m2
14:59 64.4 °F /  18 °C 52.1 °F /  11.2 °C 29.99in /  1015.5hPa SW 1.2mph /  1.9km/h 4mph /  6.4km/h 62.2% 0.00in /  0mm 550 W/m2
15:04 64.4 °F /  18 °C 52.2 °F /  11.2 °C 29.99in /  1015.5hPa West 3.6mph /  5.8km/h 6mph /  9.7km/h 62.6% 0.00in /  0mm 283 W/m2
15:09 64.8 °F /  18.2 °C 52 °F /  11.1 °C 29.99in /  1015.5hPa West 5.8mph /  9.3km/h 13mph /  20.9km/h 61.4% 0.00in /  0mm 336 W/m2
15:14 64 °F /  17.8 °C 51.2 °F /  10.7 °C 29.99in /  1015.5hPa WSW 6.6mph /  10.6km/h 13mph /  20.9km/h 61.2% 0.00in /  0mm 299 W/m2
15:19 63.7 °F /  17.6 °C 51.5 °F /  10.8 °C 29.98in /  1015.1hPa West 4.4mph /  7.1km/h 9mph /  14.5km/h 62.6% 0.00in /  0mm 257 W/m2
15:24 63.4 °F /  17.4 °C 51.6 °F /  10.9 °C 29.98in /  1015.1hPa WNW 4.9mph /  7.9km/h 9mph /  14.5km/h 63.2% 0.00in /  0mm 265 W/m2
15:29 63.2 °F /  17.3 °C 51.5 °F /  10.8 °C 29.98in /  1015.1hPa West 4.8mph /  7.7km/h 9mph /  14.5km/h 63.4% 0.00in /  0mm 251 W/m2
15:34 63.3 °F /  17.4 °C 51 °F /  10.6 °C 29.98in /  1015.1hPa WNW 4.9mph /  7.9km/h 9mph /  14.5km/h 62.2% 0.00in /  0mm 232 W/m2
15:39 63.1 °F /  17.3 °C 51.3 °F /  10.7 °C 29.98in /  1015.1hPa NW 5mph /  8km/h 9mph /  14.5km/h 63.2% 0.00in /  0mm 297 W/m2
15:44 63.3 °F /  17.4 °C 52 °F /  11.1 °C 29.98in /  1015.1hPa West 3.3mph /  5.3km/h 6mph /  9.7km/h 64.4% 0.00in /  0mm 315 W/m2
15:49 64 °F /  17.8 °C 51.5 °F /  10.8 °C 29.98in /  1015.1hPa West 5.4mph /  8.7km/h 8mph /  12.9km/h 61.8% 0.00in /  0mm 445 W/m2
15:54 64.1 °F /  17.8 °C 49.9 °F /  9.9 °C 29.98in /  1015.1hPa West 4.4mph /  7.1km/h 11mph /  17.7km/h 58% 0.00in /  0mm 411 W/m2
15:59 64.4 °F /  18 °C 49.5 °F /  9.7 °C 29.98in /  1015.1hPa West 4.7mph /  7.6km/h 9mph /  14.5km/h 56.5% 0.00in /  0mm 396 W/m2
16:04 64.3 °F /  17.9 °C 48.8 °F /  9.3 °C 29.98in /  1015.1hPa WSW 4.3mph /  6.9km/h 10mph /  16.1km/h 55.2% 0.00in /  0mm 381 W/m2
16:09 64.5 °F /  18.1 °C 49.2 °F /  9.6 °C 29.98in /  1015.1hPa West 4mph /  6.4km/h 8mph /  12.9km/h 55.8% 0.00in /  0mm 383 W/m2
16:14 64 °F /  17.8 °C 48.9 °F /  9.4 °C 29.98in /  1015.1hPa WNW 5.3mph /  8.5km/h 8mph /  12.9km/h 56.2% 0.00in /  0mm 185 W/m2
16:19 63.3 °F /  17.4 °C 49.1 °F /  9.5 °C 29.98in /  1015.1hPa West 5.2mph /  8.4km/h 9mph /  14.5km/h 58% 0.00in /  0mm 118 W/m2
16:24 62.9 °F /  17.2 °C 49.7 °F /  9.8 °C 29.98in /  1015.1hPa West 6.2mph /  10km/h 9mph /  14.5km/h 60.2% 0.00in /  0mm 125 W/m2
16:29 62.6 °F /  17 °C 50.9 °F /  10.5 °C 29.98in /  1015.1hPa West 6mph /  9.7km/h 12mph /  19.3km/h 63.4% 0.00in /  0mm 134 W/m2
16:34 61.9 °F /  16.6 °C 51.2 °F /  10.7 °C 29.98in /  1015.1hPa WNW 7.3mph /  11.7km/h 13mph /  20.9km/h 65.8% 0.00in /  0mm 127 W/m2
16:39 61.2 °F /  16.2 °C 50.7 °F /  10.4 °C 29.98in /  1015.1hPa WNW 4.8mph /  7.7km/h 10mph /  16.1km/h 66.2% 0.00in /  0mm 121 W/m2
16:44 61.1 °F /  16.2 °C 50.8 °F /  10.4 °C 29.98in /  1015.1hPa West 6.9mph /  11.1km/h 10mph /  16.1km/h 67% 0.00in /  0mm 120 W/m2
16:49 61 °F /  16.1 °C 51.3 °F /  10.7 °C 29.98in /  1015.1hPa WNW 3.4mph /  5.5km/h 10mph /  16.1km/h 68% 0.00in /  0mm 125 W/m2
16:54 61 °F /  16.1 °C 50.8 °F /  10.4 °C 29.98in /  1015.1hPa WNW 3.6mph /  5.8km/h 10mph /  16.1km/h 67.2% 0.00in /  0mm 111 W/m2
16:59 61 °F /  16.1 °C 50.5 °F /  10.3 °C 29.98in /  1015.1hPa WNW 4.3mph /  6.9km/h 8mph /  12.9km/h 66.2% 0.00in /  0mm 109 W/m2
17:04 61 °F /  16.1 °C 50.2 °F /  10.1 °C 29.98in /  1015.1hPa WNW 4.4mph /  7.1km/h 8mph /  12.9km/h 65.6% 0.00in /  0mm 114 W/m2
17:09 61 °F /  16.1 °C 49.6 °F /  9.8 °C 29.98in /  1015.1hPa West 5.7mph /  9.2km/h 10mph /  16.1km/h 64% 0.00in /  0mm 109 W/m2
17:14 60.8 °F /  16 °C 49.9 °F /  9.9 °C 29.97in /  1014.8hPa WNW 3.5mph /  5.6km/h 8mph /  12.9km/h 65.2% 0.00in /  0mm 102 W/m2
17:19 60.7 °F /  15.9 °C 50.5 °F /  10.3 °C 29.97in /  1014.8hPa WNW 2.4mph /  3.9km/h 5mph /  8km/h 66.8% 0.00in /  0mm 90 W/m2
17:24 60.6 °F /  15.9 °C 50.9 °F /  10.5 °C 29.97in /  1014.8hPa WNW 3.3mph /  5.3km/h 6mph /  9.7km/h 68% 0.00in /  0mm 70 W/m2
17:29 60.4 °F /  15.8 °C 50.7 °F /  10.4 °C 29.98in /  1015.1hPa WNW 4.8mph /  7.7km/h 8mph /  12.9km/h 68% 0.00in /  0mm 53 W/m2
17:34 60.3 °F /  15.7 °C 51 °F /  10.6 °C 29.98in /  1015.1hPa West 4mph /  6.4km/h 8mph /  12.9km/h 69% 0.00in /  0mm 33 W/m2
17:39 60.3 °F /  15.7 °C 51.2 °F /  10.7 °C 29.98in /  1015.1hPa WNW 3mph /  4.8km/h 7mph /  11.3km/h 69.8% 0.00in /  0mm 30 W/m2
17:44 60.3 °F /  15.7 °C 51.5 °F /  10.8 °C 29.97in /  1014.8hPa West 2.8mph /  4.5km/h 6mph /  9.7km/h 70.8% 0.00in /  0mm 56 W/m2
17:49 60.2 °F /  15.7 °C 51.5 °F /  10.8 °C 29.98in /  1015.1hPa WNW 4.1mph /  6.6km/h 7mph /  11.3km/h 71% 0.00in /  0mm 49 W/m2
17:54 60.1 °F /  15.6 °C 51.4 °F /  10.8 °C 29.98in /  1015.1hPa West 3.6mph /  5.8km/h 7mph /  11.3km/h 71% 0.00in /  0mm 69 W/m2
17:59 60.1 °F /  15.6 °C 51.4 °F /  10.8 °C 29.98in /  1015.1hPa WNW 2.5mph /  4km/h 7mph /  11.3km/h 71% 0.00in /  0mm 62 W/m2
18:04 60.1 °F /  15.6 °C 52 °F /  11.1 °C 29.98in /  1015.1hPa WNW 3.3mph /  5.3km/h 5mph /  8km/h 72% 0.00in /  0mm 60 W/m2
18:09 59.9 °F /  15.5 °C 51.8 °F /  11 °C 29.98in /  1015.1hPa West 3.7mph /  6km/h 8mph /  12.9km/h 72% 0.00in /  0mm 54 W/m2
18:14 59.6 °F /  15.3 °C 51.7 °F /  10.9 °C 29.98in /  1015.1hPa West 3.7mph /  6km/h 6mph /  9.7km/h 72.5% 0.00in /  0mm 47 W/m2
18:19 59.4 °F /  15.2 °C 51.6 °F /  10.9 °C 29.98in /  1015.1hPa West 3.8mph /  6.1km/h 6mph /  9.7km/h 73% 0.00in /  0mm 40 W/m2
18:24 59.1 °F /  15.1 °C 51.3 °F /  10.7 °C 29.98in /  1015.1hPa WNW 2.5mph /  4km/h 6mph /  9.7km/h 73% 0.00in /  0mm 26 W/m2
18:29 58.8 °F /  14.9 °C 51.3 °F /  10.7 °C 29.98in /  1015.1hPa WNW 0.8mph /  1.3km/h 4mph /  6.4km/h 73.6% 0.00in /  0mm 21 W/m2
18:34 58.8 °F /  14.9 °C 51.4 °F /  10.8 °C 29.98in /  1015.1hPa WNW 0.4mph /  0.6km/h 3mph /  4.8km/h 74% 0.00in /  0mm 16 W/m2
18:39 58.8 °F /  14.9 °C 51.4 °F /  10.8 °C 29.98in /  1015.1hPa WNW 0.4mph /  0.6km/h 2mph /  3.2km/h 74% 0.00in /  0mm 12 W/m2
18:44 58.8 °F /  14.9 °C 51.4 °F /  10.8 °C 29.98in /  1015.1hPa Calm   2mph /  3.2km/h 74% 0.00in /  0mm 9 W/m2
18:49 58.6 °F /  14.8 °C 51.5 °F /  10.8 °C 29.98in /  1015.1hPa WNW 0.4mph /  0.6km/h 3mph /  4.8km/h 74.8% 0.00in /  0mm 5 W/m2
18:54 58.4 °F /  14.7 °C 51.3 °F /  10.7 °C 29.98in /  1015.1hPa WNW 1.2mph /  1.9km/h 2mph /  3.2km/h 75% 0.00in /  0mm 0 W/m2
18:59 58 °F /  14.4 °C 51 °F /  10.6 °C 29.98in /  1015.1hPa WNW 1mph /  1.6km/h 3mph /  4.8km/h 75% 0.00in /  0mm 0 W/m2
19:04 57.7 °F /  14.3 °C 50.7 °F /  10.4 °C 29.98in /  1015.1hPa WNW 1.6mph /  2.6km/h 3mph /  4.8km/h 75% 0.00in /  0mm 0 W/m2
19:09 57.5 °F /  14.2 °C 50.5 °F /  10.3 °C 29.98in /  1015.1hPa WNW 0.8mph /  1.3km/h 3mph /  4.8km/h 75% 0.00in /  0mm 0 W/m2
19:14 57.4 °F /  14.1 °C 50.4 °F /  10.2 °C 29.98in /  1015.1hPa WNW 0.6mph /  1km/h 3mph /  4.8km/h 75% 0.00in /  0mm 0 W/m2
19:19 57.3 °F /  14.1 °C 50.6 °F /  10.3 °C 29.98in /  1015.1hPa WNW 1.3mph /  2.1km/h 3mph /  4.8km/h 76% 0.00in /  0mm 0 W/m2
19:24 57 °F /  13.9 °C 50.4 °F /  10.2 °C 29.98in /  1015.1hPa WNW 1.6mph /  2.6km/h 4mph /  6.4km/h 76% 0.00in /  0mm 0 W/m2
19:29 56.8 °F /  13.8 °C 50.2 °F /  10.1 °C 29.98in /  1015.1hPa WNW 1.7mph /  2.7km/h 4mph /  6.4km/h 76% 0.00in /  0mm 0 W/m2
19:34 56.7 °F /  13.7 °C 50.1 °F /  10.1 °C 29.98in /  1015.1hPa Calm   2mph /  3.2km/h 76% 0.00in /  0mm 0 W/m2
19:39 56.7 °F /  13.7 °C 50 °F /  10 °C 29.98in /  1015.1hPa WNW 1mph /  1.6km/h 2mph /  3.2km/h 76% 0.00in /  0mm 0 W/m2
19:44 56.5 °F /  13.6 °C 49.8 °F /  9.9 °C 29.98in /  1015.1hPa Calm   1mph /  1.6km/h 76% 0.00in /  0mm 0 W/m2
19:49 56.5 °F /  13.6 °C 49.8 °F /  9.9 °C 29.98in /  1015.1hPa Calm     76.2% 0.00in /  0mm 0 W/m2
19:54 56.1 °F /  13.4 °C 49.7 °F /  9.8 °C 29.98in /  1015.1hPa WNW 0.8mph /  1.3km/h 3mph /  4.8km/h 76.4% 0.00in /  0mm 0 W/m2
19:59 56.1 °F /  13.4 °C 49.8 °F /  9.9 °C 29.98in /  1015.1hPa Calm     77% 0.00in /  0mm 0 W/m2
20:04 56 °F /  13.3 °C 49.7 °F /  9.8 °C 29.98in /  1015.1hPa Calm     77% 0.00in /  0mm 0 W/m2
20:09 55.9 °F /  13.3 °C 49.6 °F /  9.8 °C 29.98in /  1015.1hPa Calm     77% 0.00in /  0mm 0 W/m2
20:14 55.8 °F /  13.2 °C 49.7 °F /  9.8 °C 29.97in /  1014.8hPa WNW 0.8mph /  1.3km/h 2mph /  3.2km/h 77.6% 0.00in /  0mm 0 W/m2
20:19 55.6 °F /  13.1 °C 49.6 °F /  9.8 °C 29.98in /  1015.1hPa WNW 1.3mph /  2.1km/h 3mph /  4.8km/h 78% 0.00in /  0mm 0 W/m2
20:24 55.3 °F /  12.9 °C 49.6 °F /  9.8 °C 29.98in /  1015.1hPa WNW 0.6mph /  1km/h 3mph /  4.8km/h 78.8% 0.00in /  0mm 0 W/m2
20:29 55.2 °F /  12.9 °C 49.6 °F /  9.8 °C 29.98in /  1015.1hPa WNW 0.5mph /  0.8km/h 3mph /  4.8km/h 79% 0.00in /  0mm 0 W/m2
20:34 55 °F /  12.8 °C 49.8 °F /  9.9 °C 29.98in /  1015.1hPa WNW 0.4mph /  0.6km/h 2mph /  3.2km/h 80% 0.00in /  0mm 0 W/m2
20:39 54.9 °F /  12.7 °C 49.6 °F /  9.8 °C 29.98in /  1015.1hPa WNW 0.2mph /  0.3km/h 1mph /  1.6km/h 80% 0.00in /  0mm 0 W/m2
20:44 54.9 °F /  12.7 °C 49.8 °F /  9.9 °C 29.97in /  1014.8hPa Calm     80.6% 0.00in /  0mm 0 W/m2
20:49 54.9 °F /  12.7 °C 50 °F /  10 °C 29.97in /  1014.8hPa Calm     81% 0.00in /  0mm 0 W/m2
20:54 54.7 °F /  12.6 °C 49.8 °F /  9.9 °C 29.97in /  1014.8hPa WNW 0.4mph /  0.6km/h 2mph /  3.2km/h 81% 0.00in /  0mm 0 W/m2
20:59 54.7 °F /  12.6 °C 49.8 °F /  9.9 °C 29.97in /  1014.8hPa WNW 1.1mph /  1.8km/h 3mph /  4.8km/h 81% 0.00in /  0mm 0 W/m2
21:04 54.7 °F /  12.6 °C 49.8 °F /  9.9 °C 29.97in /  1014.8hPa WNW 0.6mph /  1km/h 3mph /  4.8km/h 81% 0.00in /  0mm 0 W/m2
21:09 54.7 °F /  12.6 °C 49.7 °F /  9.8 °C 29.97in /  1014.8hPa WNW 1.2mph /  1.9km/h 4mph /  6.4km/h 80.8% 0.00in /  0mm 0 W/m2
21:14 54.7 °F /  12.6 °C 49.5 °F /  9.7 °C 29.97in /  1014.8hPa WNW 0.4mph /  0.6km/h 4mph /  6.4km/h 80% 0.00in /  0mm 0 W/m2
21:19 54.6 °F /  12.6 °C 49.4 °F /  9.7 °C 29.97in /  1014.8hPa Calm     80% 0.00in /  0mm 0 W/m2
21:23 54.6 °F /  12.6 °C 49.4 °F /  9.7 °C 29.97in /  1014.8hPa Calm     80% 0.00in /  0mm 0 W/m2
21:29 54.7 °F /  12.6 °C 49.5 °F /  9.7 °C 29.97in /  1014.8hPa Calm     80% 0.00in /  0mm 0 W/m2
21:34 54.7 °F /  12.6 °C 49.6 °F /  9.8 °C 29.97in /  1014.8hPa Calm     80.2% 0.00in /  0mm 0 W/m2
21:39 54.7 °F /  12.6 °C 49.8 °F /  9.9 °C 29.97in /  1014.8hPa Calm     81% 0.00in /  0mm 0 W/m2
21:44 54.5 °F /  12.5 °C 49.7 °F /  9.8 °C 29.97in /  1014.8hPa Calm     81% 0.00in /  0mm 0 W/m2
21:49 54.2 °F /  12.3 °C 49.4 °F /  9.7 °C 29.97in /  1014.8hPa Calm     81% 0.00in /  0mm 0 W/m2
21:54 54 °F /  12.2 °C 49.2 °F /  9.6 °C 29.96in /  1014.4hPa Calm     81.2% 0.00in /  0mm 0 W/m2
21:59 53.7 °F /  12.1 °C 49.2 °F /  9.6 °C 29.96in /  1014.4hPa Calm   1mph /  1.6km/h 82% 0.00in /  0mm 0 W/m2
22:04 53.3 °F /  11.8 °C 48.8 °F /  9.3 °C 29.96in /  1014.4hPa Calm     82% 0.00in /  0mm 0 W/m2
22:09 53.1 °F /  11.7 °C 48.9 °F /  9.4 °C 29.96in /  1014.4hPa Calm     83% 0.00in /  0mm 0 W/m2
22:14 52.9 °F /  11.6 °C 48.7 °F /  9.3 °C 29.96in /  1014.4hPa Calm     83% 0.00in /  0mm 0 W/m2
22:19 52.3 °F /  11.3 °C 48.2 °F /  9 °C 29.96in /  1014.4hPa WNW 0.4mph /  0.6km/h 2mph /  3.2km/h 83% 0.00in /  0mm 0 W/m2
22:24 52 °F /  11.1 °C 48.2 °F /  9 °C 29.96in /  1014.4hPa Calm   1mph /  1.6km/h 84% 0.00in /  0mm 0 W/m2
22:29 51.7 °F /  10.9 °C 47.9 °F /  8.8 °C 29.96in /  1014.4hPa Calm     84% 0.00in /  0mm 0 W/m2
22:34 51.5 °F /  10.8 °C 48.1 °F /  8.9 °C 29.96in /  1014.4hPa Calm     85% 0.00in /  0mm 0 W/m2
22:39 51.2 °F /  10.7 °C 47.8 °F /  8.8 °C 29.95in /  1014.1hPa Calm     85% 0.00in /  0mm 0 W/m2
22:44 51 °F /  10.6 °C 47.6 °F /  8.7 °C 29.95in /  1014.1hPa Calm     85% 0.00in /  0mm 0 W/m2
22:49 50.9 °F /  10.5 °C 47.7 °F /  8.7 °C 29.95in /  1014.1hPa Calm     85.8% 0.00in /  0mm 0 W/m2
22:54 50.7 °F /  10.4 °C 47.5 °F /  8.6 °C 29.95in /  1014.1hPa Calm     86% 0.00in /  0mm 0 W/m2
22:59 50.5 °F /  10.3 °C 47.5 °F /  8.6 °C 29.95in /  1014.1hPa Calm     86% 0.00in /  0mm 0 W/m2
23:04 50.3 °F /  10.2 °C 47.2 °F /  8.4 °C 29.95in /  1014.1hPa Calm     86% 0.00in /  0mm 0 W/m2
23:09 50.1 °F /  10.1 °C 47 °F /  8.3 °C 29.95in /  1014.1hPa Calm     86% 0.00in /  0mm 0 W/m2
23:14 50 °F /  10 °C 47.1 °F /  8.4 °C 29.95in /  1014.1hPa Calm     87% 0.00in /  0mm 0 W/m2
23:19 50 °F /  10 °C 47.1 °F /  8.4 °C 29.95in /  1014.1hPa Calm     87% 0.00in /  0mm 0 W/m2
23:24 49.8 °F /  9.9 °C 46.9 °F /  8.3 °C 29.95in /  1014.1hPa Calm     87% 0.00in /  0mm 0 W/m2
23:29 49.8 °F /  9.9 °C 46.9 °F /  8.3 °C 29.95in /  1014.1hPa Calm     87% 0.00in /  0mm 0 W/m2
23:34 50 °F /  10 °C 47.4 °F /  8.6 °C 29.95in /  1014.1hPa Calm     87.8% 0.00in /  0mm 0 W/m2
23:39 50.2 °F /  10.1 °C 47.7 °F /  8.7 °C 29.94in /  1013.8hPa Calm     88% 0.00in /  0mm 0 W/m2
23:44 50.2 °F /  10.1 °C 47.7 °F /  8.7 °C 29.94in /  1013.8hPa Calm     88% 0.00in /  0mm 0 W/m2
23:49 50.2 °F /  10.1 °C 47.7 °F /  8.7 °C 29.94in /  1013.8hPa Calm     88% 0.00in /  0mm 0 W/m2
23:54 50.2 °F /  10.1 °C 47.7 °F /  8.7 °C 29.94in /  1013.8hPa Calm     88% 0.00in /  0mm 0 W/m2
23:59 50.2 °F /  10.1 °C 47.7 °F /  8.7 °C 29.94in /  1013.8hPa Calm     88% 0.00in /  0mm 0 W/m2
Bath Spa Weather
Compliments of Weather Underground - 2 mb